createdAt,value
2019-02-28T00:00:59.693Z,36.55
2019-02-28T00:02:07.275Z,41.08
2019-02-28T00:03:14.062Z,37.63
2019-02-28T00:04:20.986Z,38.15
2019-02-28T00:05:26.973Z,35.83
2019-02-28T00:06:34.026Z,40.70
2019-02-28T00:07:40.849Z,38.78
2019-02-28T00:08:46.919Z,36.20
2019-02-28T00:09:53.797Z,35.83
2019-02-28T00:11:02.083Z,38.05
2019-02-28T00:12:10.207Z,38.25
2019-02-28T00:13:21.410Z,41.15
2019-02-28T00:14:27.732Z,40.20
2019-02-28T00:15:34.500Z,38.05
2019-02-28T00:16:41.584Z,40.58
2019-02-28T00:17:48.437Z,37.83
2019-02-28T00:18:55.499Z,37.53
2019-02-28T00:20:02.566Z,37.15
2019-02-28T00:21:08.963Z,37.03
2019-02-28T00:22:16.182Z,38.40
2019-02-28T00:23:23.223Z,44.13
2019-02-28T00:24:30.098Z,40.88
2019-02-28T00:25:38.570Z,40.23
2019-02-28T00:26:47.671Z,43.28
2019-02-28T00:27:53.456Z,41.63
2019-02-28T00:29:01.156Z,41.85
2019-02-28T00:30:11.877Z,46.37
2019-02-28T00:31:19.864Z,42.93
2019-02-28T00:32:26.047Z,40.98
2019-02-28T00:33:31.764Z,40.75
2019-02-28T00:34:39.361Z,42.55
2019-02-28T00:35:46.716Z,42.48
2019-02-28T00:36:54.727Z,42.43
2019-02-28T00:38:01.247Z,41.15
2019-02-28T00:39:07.312Z,39.33
2019-02-28T00:40:16.298Z,40.67
2019-02-28T00:41:23.748Z,41.10
2019-02-28T00:42:29.769Z,45.03
2019-02-28T00:43:36.449Z,40.48
2019-02-28T00:44:43.089Z,48.20
2019-02-28T00:45:48.922Z,41.42
2019-02-28T00:46:55.649Z,45.12
2019-02-28T00:48:03.389Z,39.80
2019-02-28T00:49:09.428Z,41.60
2019-02-28T00:50:16.588Z,39.98
2019-02-28T00:51:24.182Z,40.25
2019-02-28T00:52:32.052Z,43.45
2019-02-28T00:53:40.448Z,39.95
2019-02-28T00:54:46.739Z,43.17
2019-02-28T00:55:53.051Z,41.23
2019-02-28T00:56:59.911Z,45.63
2019-02-28T00:58:05.900Z,40.58
2019-02-28T00:59:13.160Z,38.98
2019-02-28T01:00:22.509Z,36.30
2019-02-28T01:01:28.800Z,44.05
2019-02-28T01:02:36.228Z,39.63
2019-02-28T01:03:43.188Z,43.92
2019-02-28T01:04:49.540Z,39.45
2019-02-28T01:05:55.731Z,38.67
2019-02-28T01:07:01.763Z,41.15
2019-02-28T01:08:08.010Z,54.60
2019-02-28T01:09:17.049Z,48.20
2019-02-28T01:10:23.193Z,42.13
2019-02-28T01:11:29.727Z,40.85
2019-02-28T01:12:37.400Z,42.27
2019-02-28T01:13:43.711Z,41.90
2019-02-28T01:14:50.157Z,41.48
2019-02-28T01:15:56.839Z,43.25
2019-02-28T01:17:03.151Z,42.33
2019-02-28T01:18:09.821Z,39.53
2019-02-28T01:19:15.980Z,46.68
2019-02-28T01:20:23.337Z,43.50
2019-02-28T01:21:30.196Z,43.60
2019-02-28T01:22:35.859Z,39.05
2019-02-28T01:23:42.528Z,39.05
2019-02-28T01:24:48.729Z,43.10
2019-02-28T01:25:54.597Z,41.53
2019-02-28T01:27:00.768Z,42.43
2019-02-28T01:28:07.995Z,44.27
2019-02-28T01:29:14.378Z,46.55
2019-02-28T01:30:22.225Z,44.03
2019-02-28T01:31:28.519Z,43.33
2019-02-28T01:32:35.378Z,42.20
2019-02-28T01:33:42.507Z,41.90
2019-02-28T01:34:49.458Z,38.83
2019-02-28T01:35:55.626Z,44.38
2019-02-28T01:37:02.188Z,50.73
2019-02-28T01:38:08.529Z,46.02
2019-02-28T01:39:15.588Z,41.25
2019-02-28T01:40:23.089Z,42.00
2019-02-28T01:41:29.431Z,41.70
2019-02-28T01:42:35.861Z,41.88
2019-02-28T01:43:42.848Z,38.92
2019-02-28T01:44:48.810Z,37.70
2019-02-28T01:45:54.868Z,39.03
2019-02-28T01:47:00.778Z,44.10
2019-02-28T01:48:07.257Z,44.65
2019-02-28T01:49:35.482Z,41.50
2019-02-28T01:50:41.770Z,41.20
2019-02-28T01:51:48.610Z,43.23
2019-02-28T01:52:55.480Z,45.00
2019-02-28T01:54:01.336Z,38.45
2019-02-28T01:55:10.121Z,37.83
2019-02-28T01:56:17.108Z,40.67
2019-02-28T01:57:23.186Z,40.70
2019-02-28T01:58:29.513Z,40.10
2019-02-28T01:59:36.382Z,40.80
2019-02-28T02:00:42.439Z,40.08
2019-02-28T02:01:48.382Z,37.42
2019-02-28T02:02:54.450Z,40.35
2019-02-28T02:04:01.148Z,41.48
2019-02-28T02:05:08.738Z,39.80
2019-02-28T02:06:14.847Z,40.08
2019-02-28T02:07:21.409Z,41.68
2019-02-28T02:08:28.653Z,40.95
2019-02-28T02:09:34.315Z,40.00
2019-02-28T02:10:40.332Z,36.48
2019-02-28T02:11:47.224Z,42.33
2019-02-28T02:12:53.509Z,38.85
2019-02-28T02:13:59.737Z,40.58
2019-02-28T02:15:10.426Z,40.05
2019-02-28T02:16:16.454Z,36.88
2019-02-28T02:17:23.833Z,40.45
2019-02-28T02:18:30.427Z,40.92
2019-02-28T02:19:36.236Z,38.75
2019-02-28T02:20:43.147Z,36.60
2019-02-28T02:21:50.074Z,37.20
2019-02-28T02:22:57.028Z,38.88
2019-02-28T02:24:04.594Z,38.48
2019-02-28T02:25:10.770Z,38.02
2019-02-28T02:26:17.230Z,39.42
2019-02-28T02:27:24.551Z,36.77
2019-02-28T02:28:30.240Z,39.55
2019-02-28T02:29:37.156Z,36.93
2019-02-28T02:30:50.520Z,39.38
2019-02-28T02:31:51.861Z,41.95
2019-02-28T02:32:59.962Z,38.02
2019-02-28T02:34:07.192Z,38.45
2019-02-28T02:35:15.754Z,37.42
2019-02-28T02:36:21.748Z,40.60
2019-02-28T02:37:30.494Z,40.30
2019-02-28T02:38:41.456Z,46.02
2019-02-28T02:39:50.254Z,38.45
2019-02-28T02:40:59.033Z,43.42
2019-02-28T02:42:10.001Z,42.35
2019-02-28T02:43:12.486Z,37.42
2019-02-28T02:44:18.968Z,37.33
2019-02-28T02:45:25.314Z,35.30
2019-02-28T02:46:31.868Z,37.48
2019-02-28T02:47:38.566Z,33.75
2019-02-28T02:48:44.808Z,41.42
2019-02-28T02:49:56.200Z,34.75
2019-02-28T02:50:58.983Z,38.75
2019-02-28T02:52:05.622Z,34.63
2019-02-28T02:53:12.692Z,37.67
2019-02-28T02:54:20.152Z,34.95
2019-02-28T02:55:28.981Z,37.00
2019-02-28T02:56:40.675Z,36.68
2019-02-28T02:57:42.383Z,38.92
2019-02-28T02:58:49.332Z,35.45
2019-02-28T02:59:55.727Z,37.17
2019-02-28T03:01:01.799Z,35.58
2019-02-28T03:02:09.212Z,34.33
2019-02-28T03:03:16.936Z,34.15
2019-02-28T03:04:23.488Z,35.35
2019-02-28T03:05:34.961Z,35.73
2019-02-28T03:06:39.827Z,37.65
2019-02-28T03:07:46.138Z,36.48
2019-02-28T03:08:52.500Z,36.28
2019-02-28T03:09:58.474Z,37.93
2019-02-28T03:11:05.828Z,38.33
2019-02-28T03:12:12.548Z,36.53
2019-02-28T03:13:18.476Z,34.38
2019-02-28T03:14:25.200Z,40.25
2019-02-28T03:15:32.101Z,38.40
2019-02-28T03:16:38.862Z,38.53
2019-02-28T03:17:47.069Z,36.83
2019-02-28T03:18:57.216Z,38.35
2019-02-28T03:20:07.489Z,39.73
2019-02-28T03:21:15.063Z,35.58
2019-02-28T03:22:19.392Z,37.10
2019-02-28T03:23:25.772Z,37.15
2019-02-28T03:24:32.835Z,40.88
2019-02-28T03:25:39.317Z,38.90
2019-02-28T03:26:47.387Z,36.58
2019-02-28T03:27:56.409Z,34.70
2019-02-28T03:29:07.615Z,35.80
2019-02-28T03:30:28.474Z,41.58
2019-02-28T03:31:29.758Z,39.78
2019-02-28T03:32:42.164Z,36.60
2019-02-28T03:33:45.529Z,40.00
2019-02-28T03:34:58.354Z,37.60
2019-02-28T03:36:00.107Z,37.33
2019-02-28T03:37:06.117Z,35.63
2019-02-28T03:38:12.778Z,38.80
2019-02-28T03:39:24.101Z,35.03
2019-02-28T03:40:29.241Z,37.00
2019-02-28T03:41:35.499Z,32.90
2019-02-28T03:42:42.366Z,37.53
2019-02-28T03:43:50.177Z,34.98
2019-02-28T03:44:57.085Z,37.00
2019-02-28T03:46:06.377Z,39.70
2019-02-28T03:47:11.634Z,35.50
2019-02-28T03:48:18.202Z,39.58
2019-02-28T03:49:24.940Z,44.08
2019-02-28T03:50:30.846Z,39.10
2019-02-28T03:51:37.913Z,52.30
2019-02-28T03:52:45.755Z,42.95
2019-02-28T03:53:55.637Z,44.10
2019-02-28T03:55:03.263Z,41.68
2019-02-28T03:56:08.211Z,39.48
2019-02-28T03:57:14.334Z,38.75
2019-02-28T03:58:21.386Z,35.78
2019-02-28T03:59:28.089Z,42.35
2019-02-28T04:00:34.360Z,37.17
2019-02-28T04:01:45.379Z,36.10
2019-02-28T04:02:56.893Z,38.98
2019-02-28T04:03:58.745Z,44.50
2019-02-28T04:05:05.441Z,38.50
2019-02-28T04:06:12.196Z,39.67
2019-02-28T04:07:18.565Z,42.23
2019-02-28T04:08:29.318Z,42.10
2019-02-28T04:09:33.342Z,37.88
2019-02-28T04:10:39.675Z,38.53
2019-02-28T04:11:47.615Z,36.68
2019-02-28T04:12:54.163Z,36.63
2019-02-28T04:14:00.910Z,37.20
2019-02-28T04:15:18.146Z,36.65
2019-02-28T04:16:24.117Z,38.88
2019-02-28T04:17:31.665Z,38.20
2019-02-28T04:18:44.333Z,33.95
2019-02-28T04:19:45.905Z,35.92
2019-02-28T04:20:52.429Z,33.00
2019-02-28T04:21:59.433Z,35.80
2019-02-28T04:23:07.046Z,34.50
2019-02-28T04:24:14.134Z,37.25
2019-02-28T04:25:24.119Z,34.40
2019-02-28T04:26:30.049Z,33.05
2019-02-28T04:27:40.200Z,34.73
2019-02-28T04:28:46.315Z,39.75
2019-02-28T04:29:53.115Z,35.48
2019-02-28T04:31:01.623Z,34.27
2019-02-28T04:32:07.493Z,37.40
2019-02-28T04:33:14.558Z,36.53
2019-02-28T04:34:21.454Z,39.13
2019-02-28T04:35:27.540Z,33.67
2019-02-28T04:36:35.687Z,34.10
2019-02-28T04:37:46.768Z,37.67
2019-02-28T04:38:51.722Z,38.15
2019-02-28T04:39:59.599Z,36.20
2019-02-28T04:41:06.809Z,37.05
2019-02-28T04:42:12.804Z,36.83
2019-02-28T04:43:19.121Z,38.65
2019-02-28T04:44:27.097Z,38.58
2019-02-28T04:45:32.834Z,35.38
2019-02-28T04:46:39.299Z,39.27
2019-02-28T04:47:46.179Z,42.45
2019-02-28T04:48:52.075Z,39.95
2019-02-28T04:49:58.482Z,37.20
2019-02-28T04:51:05.729Z,37.40
2019-02-28T04:52:13.866Z,37.55
2019-02-28T04:53:21.349Z,40.03
2019-02-28T04:54:27.863Z,41.30
2019-02-28T04:55:37.202Z,37.60
2019-02-28T04:56:45.520Z,40.55
2019-02-28T04:57:51.598Z,36.45
2019-02-28T04:58:59.495Z,36.25
2019-02-28T05:00:16.465Z,36.85
2019-02-28T05:01:22.423Z,37.48
2019-02-28T05:02:28.625Z,38.30
2019-02-28T05:03:35.625Z,42.55
2019-02-28T05:04:41.704Z,40.67
2019-02-28T05:05:48.621Z,42.62
2019-02-28T05:06:55.258Z,38.42
2019-02-28T05:08:05.815Z,38.10
2019-02-28T05:09:14.545Z,36.60
2019-02-28T05:10:19.282Z,37.48
2019-02-28T05:11:27.396Z,37.40
2019-02-28T05:12:39.719Z,38.80
2019-02-28T05:13:48.250Z,55.15
2019-02-28T05:14:55.308Z,49.88
2019-02-28T05:16:03.622Z,93.72
2019-02-28T05:17:09.613Z,80.22
2019-02-28T05:18:16.086Z,114.52
2019-02-28T05:19:21.983Z,72.20
2019-02-28T05:20:27.752Z,50.08
2019-02-28T05:21:34.671Z,61.05
2019-02-28T05:22:41.614Z,76.10
2019-02-28T05:23:47.657Z,52.80
2019-02-28T05:24:54.903Z,49.88
2019-02-28T05:26:00.685Z,63.95
2019-02-28T05:27:07.677Z,55.43
2019-02-28T05:28:14.485Z,53.02
2019-02-28T05:29:20.646Z,57.43
2019-02-28T05:30:27.126Z,69.87
2019-02-28T05:31:33.325Z,47.03
2019-02-28T05:32:40.133Z,49.18
2019-02-28T05:33:46.086Z,48.02
2019-02-28T05:34:53.073Z,44.77
2019-02-28T05:36:00.298Z,43.58
2019-02-28T05:37:11.888Z,41.25
2019-02-28T05:38:15.335Z,43.55
2019-02-28T05:39:21.248Z,42.78
2019-02-28T05:40:28.675Z,46.35
2019-02-28T05:41:36.285Z,41.73
2019-02-28T05:42:43.298Z,41.68
2019-02-28T05:43:49.463Z,44.85
2019-02-28T05:44:56.142Z,44.15
2019-02-28T05:46:02.121Z,49.48
2019-02-28T05:47:08.780Z,40.85
2019-02-28T05:48:15.065Z,48.73
2019-02-28T05:49:20.816Z,46.73
2019-02-28T05:50:27.127Z,45.33
2019-02-28T05:51:33.959Z,46.83
2019-02-28T05:52:39.975Z,43.63
2019-02-28T05:53:46.712Z,42.95
2019-02-28T05:54:52.894Z,43.17
2019-02-28T05:55:59.994Z,42.33
2019-02-28T05:57:08.256Z,42.00
2019-02-28T05:58:17.356Z,44.30
2019-02-28T05:59:25.992Z,41.10
2019-02-28T06:00:33.477Z,39.78
2019-02-28T06:02:12.926Z,40.48
2019-02-28T06:04:20.402Z,42.88
2019-02-28T06:05:31.863Z,38.02
2019-02-28T06:06:38.289Z,41.85
2019-02-28T06:07:44.772Z,38.75
2019-02-28T06:08:51.916Z,37.28
2019-02-28T06:09:58.393Z,41.45
2019-02-28T06:11:04.719Z,42.15
2019-02-28T06:12:10.586Z,45.25
2019-02-28T06:13:18.247Z,46.45
2019-02-28T06:14:27.639Z,47.43
2019-02-28T06:15:34.207Z,44.85
2019-02-28T06:16:46.149Z,45.28
2019-02-28T06:17:54.629Z,52.38
2019-02-28T06:18:58.315Z,64.03
2019-02-28T06:20:06.979Z,61.53
2019-02-28T06:21:14.209Z,76.02
2019-02-28T06:22:22.137Z,69.97
2019-02-28T06:23:27.867Z,89.20
2019-02-28T06:24:35.194Z,66.92
2019-02-28T06:25:41.625Z,49.00
2019-02-28T06:26:48.153Z,48.70
2019-02-28T06:27:54.494Z,104.85
2019-02-28T06:29:04.749Z,84.72
2019-02-28T06:30:17.554Z,80.95
2019-02-28T06:31:25.069Z,43.42
2019-02-28T06:32:32.140Z,66.50
2019-02-28T06:33:43.079Z,41.13
2019-02-28T06:36:35.749Z,42.98
2019-02-28T06:37:42.208Z,41.00
2019-02-28T06:38:51.458Z,44.03
2019-02-28T06:40:01.327Z,41.90
2019-02-28T06:41:08.693Z,47.70
2019-02-28T06:42:15.196Z,79.67
2019-02-28T06:43:21.909Z,50.85
2019-02-28T06:44:29.129Z,48.17
2019-02-28T06:45:37.595Z,51.18
2019-02-28T06:46:43.265Z,51.63
2019-02-28T06:47:50.252Z,93.12
2019-02-28T06:49:01.494Z,90.45
2019-02-28T06:50:05.795Z,61.08
2019-02-28T06:51:13.183Z,48.70
2019-02-28T06:52:19.050Z,62.53
2019-02-28T06:53:25.114Z,71.25
2019-02-28T06:54:31.430Z,79.07
2019-02-28T06:55:39.193Z,95.60
2019-02-28T06:57:06.501Z,86.57
2019-02-28T06:58:12.993Z,63.45
2019-02-28T06:59:20.863Z,72.25
2019-02-28T07:00:27.779Z,89.83
2019-02-28T07:01:35.263Z,58.95
2019-02-28T07:02:42.123Z,62.05
2019-02-28T07:03:53.524Z,55.05
2019-02-28T07:04:58.285Z,94.40
2019-02-28T07:06:04.988Z,64.65
2019-02-28T07:07:13.574Z,60.80
2019-02-28T07:08:20.730Z,72.62
2019-02-28T07:09:27.523Z,63.35
2019-02-28T07:10:33.728Z,87.85
2019-02-28T07:11:40.268Z,118.25
2019-02-28T07:12:47.191Z,112.52
2019-02-28T07:13:53.478Z,116.28
2019-02-28T07:15:01.028Z,113.28
2019-02-28T07:16:08.873Z,128.47
2019-02-28T07:17:15.575Z,96.12
2019-02-28T07:18:23.549Z,138.88
2019-02-28T07:19:31.555Z,189.00
2019-02-28T07:20:37.892Z,101.60
2019-02-28T07:21:45.951Z,154.40
2019-02-28T07:22:55.630Z,125.30
2019-02-28T07:24:02.381Z,116.37
2019-02-28T07:25:12.610Z,169.70
2019-02-28T07:26:19.686Z,114.05
2019-02-28T07:27:27.834Z,150.50
2019-02-28T07:28:37.410Z,130.55
2019-02-28T07:29:43.556Z,85.47
2019-02-28T07:30:51.160Z,130.80
2019-02-28T07:32:01.256Z,116.40
2019-02-28T07:33:10.573Z,91.85
2019-02-28T07:34:19.286Z,104.50
2019-02-28T07:35:24.290Z,103.87
2019-02-28T07:36:30.304Z,129.93
2019-02-28T07:37:37.076Z,89.92
2019-02-28T07:38:44.610Z,78.37
2019-02-28T07:39:50.579Z,88.97
2019-02-28T07:40:56.838Z,107.00
2019-02-28T07:42:03.050Z,104.45
2019-02-28T07:43:12.269Z,126.12
2019-02-28T07:44:21.268Z,87.55
2019-02-28T07:45:23.609Z,87.10
2019-02-28T07:46:29.456Z,116.25
2019-02-28T07:47:35.364Z,105.32
2019-02-28T07:48:41.137Z,77.87
2019-02-28T07:49:47.030Z,86.35
2019-02-28T07:50:53.324Z,85.10
2019-02-28T07:51:59.198Z,66.60
2019-02-28T07:53:05.564Z,60.05
2019-02-28T07:54:12.697Z,63.75
2019-02-28T07:55:21.765Z,66.17
2019-02-28T07:56:29.184Z,84.85
2019-02-28T07:57:35.137Z,67.05
2019-02-28T07:58:43.297Z,93.52
2019-02-28T08:00:18.117Z,74.90
2019-02-28T08:01:27.720Z,65.27
2019-02-28T08:02:35.732Z,68.90
2019-02-28T08:03:55.725Z,73.60
2019-02-28T08:05:03.077Z,61.90
2019-02-28T08:06:09.904Z,74.77
2019-02-28T08:07:16.197Z,67.75
2019-02-28T08:08:23.381Z,75.63
2019-02-28T08:09:31.725Z,61.10
2019-02-28T08:10:37.997Z,66.10
2019-02-28T08:11:44.801Z,67.83
2019-02-28T08:12:51.117Z,61.17
2019-02-28T08:13:57.132Z,79.13
2019-02-28T08:15:02.896Z,68.67
2019-02-28T08:16:08.645Z,66.80
2019-02-28T08:17:14.605Z,66.83
2019-02-28T08:18:20.437Z,70.83
2019-02-28T08:19:27.935Z,78.17
2019-02-28T08:20:34.861Z,68.60
2019-02-28T08:21:47.578Z,67.45
2019-02-28T08:22:48.220Z,69.03
2019-02-28T08:23:54.464Z,66.07
2019-02-28T08:25:00.478Z,70.13
2019-02-28T08:26:07.090Z,68.17
2019-02-28T08:27:15.438Z,74.17
2019-02-28T08:28:21.896Z,67.27
2019-02-28T08:29:28.133Z,64.67
2019-02-28T08:30:36.657Z,64.43
2019-02-28T08:31:42.717Z,69.07
2019-02-28T08:32:48.574Z,69.13
2019-02-28T08:33:55.671Z,74.17
2019-02-28T08:35:02.957Z,87.27
2019-02-28T08:36:12.583Z,68.87
2019-02-28T08:37:20.214Z,75.23
2019-02-28T08:38:30.049Z,71.80
2019-02-28T08:39:37.092Z,76.82
2019-02-28T08:40:43.200Z,73.07
2019-02-28T08:41:49.758Z,79.63
2019-02-28T08:42:57.659Z,73.77
2019-02-28T08:44:04.335Z,77.27
2019-02-28T08:45:13.858Z,80.77
2019-02-28T08:46:20.574Z,78.17
2019-02-28T08:47:27.600Z,74.40
2019-02-28T08:48:34.907Z,72.53
2019-02-28T08:49:44.570Z,80.13
2019-02-28T08:50:52.687Z,75.17
2019-02-28T08:52:02.492Z,78.93
2019-02-28T08:53:12.402Z,83.17
2019-02-28T08:54:17.686Z,77.03
2019-02-28T08:55:28.787Z,76.60
2019-02-28T08:56:32.850Z,81.77
2019-02-28T08:57:40.475Z,86.93
2019-02-28T08:58:49.115Z,75.30
2019-02-28T08:59:58.766Z,73.30
2019-02-28T09:01:06.616Z,77.77
2019-02-28T09:02:18.340Z,80.00
2019-02-28T09:03:27.429Z,81.33
2019-02-28T09:04:41.332Z,80.50
2019-02-28T09:05:44.746Z,73.57
2019-02-28T09:06:51.680Z,72.10
2019-02-28T09:07:58.322Z,70.10
2019-02-28T09:09:26.728Z,73.53
2019-02-28T09:10:32.985Z,71.37
2019-02-28T09:11:40.505Z,73.80
2019-02-28T09:12:47.582Z,76.60
2019-02-28T09:13:54.593Z,74.23
2019-02-28T09:15:00.342Z,75.63
2019-02-28T09:16:06.423Z,80.47
2019-02-28T09:17:12.105Z,74.70
2019-02-28T09:18:17.904Z,84.13
2019-02-28T09:19:23.704Z,73.70
2019-02-28T09:20:29.438Z,74.23
2019-02-28T09:21:36.678Z,84.40
2019-02-28T09:22:42.421Z,79.63
2019-02-28T09:23:49.138Z,76.37
2019-02-28T09:24:55.071Z,80.73
2019-02-28T09:26:00.886Z,81.27
2019-02-28T09:27:06.640Z,89.30
2019-02-28T09:28:13.182Z,83.63
2019-02-28T09:29:21.316Z,84.93
2019-02-28T09:30:42.101Z,83.57
2019-02-28T09:31:48.358Z,77.27
2019-02-28T09:32:55.478Z,82.43
2019-02-28T09:34:01.480Z,76.73
2019-02-28T09:35:13.750Z,76.30
2019-02-28T09:36:20.386Z,88.67
2019-02-28T09:37:23.665Z,81.90
2019-02-28T09:38:29.460Z,80.33
2019-02-28T09:39:35.200Z,81.80
2019-02-28T09:40:41.337Z,81.43
2019-02-28T09:41:47.220Z,83.63
2019-02-28T09:42:52.918Z,85.20
2019-02-28T09:44:00.394Z,80.77
2019-02-28T09:45:13.818Z,84.30
2019-02-28T09:46:19.569Z,84.60
2019-02-28T09:47:26.646Z,81.53
2019-02-28T09:48:34.013Z,79.50
2019-02-28T09:49:40.602Z,90.03
2019-02-28T09:50:46.318Z,89.73
2019-02-28T09:51:52.199Z,90.23
2019-02-28T09:52:59.583Z,84.50
2019-02-28T09:54:06.980Z,88.63
2019-02-28T09:55:15.919Z,95.37
2019-02-28T09:56:23.409Z,96.93
2019-02-28T09:57:30.257Z,101.47
2019-02-28T09:58:38.281Z,92.97
2019-02-28T09:59:45.425Z,96.77
2019-02-28T10:00:52.087Z,91.80
2019-02-28T10:02:01.414Z,94.83
2019-02-28T10:03:06.917Z,88.50
2019-02-28T10:04:13.539Z,90.27
2019-02-28T10:05:19.578Z,95.87
2019-02-28T10:06:26.653Z,88.77
2019-02-28T10:07:33.467Z,90.27
2019-02-28T10:08:39.887Z,91.67
2019-02-28T10:09:47.274Z,88.77
2019-02-28T10:10:55.864Z,102.70
2019-02-28T10:12:04.686Z,106.67
2019-02-28T10:13:10.417Z,97.67
2019-02-28T10:14:16.179Z,93.87
2019-02-28T10:15:25.779Z,92.77
2019-02-28T10:16:31.483Z,97.17
2019-02-28T10:17:37.678Z,93.43
2019-02-28T10:18:43.709Z,97.77
2019-02-28T10:19:52.261Z,87.00
2019-02-28T10:20:59.071Z,98.23
2019-02-28T10:22:04.623Z,109.17
2019-02-28T10:23:11.034Z,101.57
2019-02-28T10:24:17.079Z,94.80
2019-02-28T10:25:23.087Z,102.10
2019-02-28T10:26:29.399Z,103.20
2019-02-28T10:27:35.319Z,104.97
2019-02-28T10:28:41.680Z,95.03
2019-02-28T10:29:48.399Z,100.50
2019-02-28T10:30:54.040Z,96.70
2019-02-28T10:32:01.099Z,100.40
2019-02-28T10:33:07.283Z,97.73
2019-02-28T10:34:14.548Z,99.07
2019-02-28T10:35:21.979Z,102.60
2019-02-28T10:36:29.464Z,100.73
2019-02-28T10:37:35.778Z,95.47
2019-02-28T10:38:42.928Z,98.27
2019-02-28T10:39:49.088Z,94.37
2019-02-28T10:40:56.008Z,102.00
2019-02-28T10:42:05.061Z,96.33
2019-02-28T10:43:12.169Z,97.60
2019-02-28T10:44:18.268Z,98.30
2019-02-28T10:45:24.809Z,103.13
2019-02-28T10:46:32.240Z,96.80
2019-02-28T10:47:39.587Z,107.27
2019-02-28T10:48:50.850Z,132.20
2019-02-28T10:49:55.389Z,113.20
2019-02-28T10:51:01.367Z,107.10
2019-02-28T10:52:07.885Z,104.77
2019-02-28T10:53:14.265Z,101.53
2019-02-28T10:54:20.119Z,104.63
2019-02-28T10:55:25.853Z,98.67
2019-02-28T10:56:32.052Z,97.73
2019-02-28T10:57:40.637Z,89.67
2019-02-28T10:58:50.066Z,94.27
2019-02-28T10:59:58.179Z,100.10
2019-02-28T11:01:07.741Z,99.53
2019-02-28T11:02:13.973Z,99.60
2019-02-28T11:03:20.883Z,98.87
2019-02-28T11:04:27.610Z,95.07
2019-02-28T11:05:37.402Z,91.30
2019-02-28T11:06:43.720Z,113.33
2019-02-28T11:07:51.727Z,99.63
2019-02-28T11:08:57.580Z,98.87
2019-02-28T11:10:03.921Z,105.00
2019-02-28T11:11:12.379Z,93.60
2019-02-28T11:12:21.743Z,95.73
2019-02-28T11:13:28.540Z,108.83
2019-02-28T11:14:38.623Z,99.17
2019-02-28T11:15:47.860Z,100.00
2019-02-28T11:16:50.680Z,99.70
2019-02-28T11:17:56.499Z,96.57
2019-02-28T11:19:02.667Z,101.47
2019-02-28T11:20:21.896Z,100.00
2019-02-28T11:21:19.836Z,91.10
2019-02-28T11:22:25.627Z,83.97
2019-02-28T11:23:31.924Z,80.50
2019-02-28T11:24:38.031Z,81.90
2019-02-28T11:25:43.919Z,81.27
2019-02-28T11:26:49.953Z,87.43
2019-02-28T11:27:56.388Z,81.67
2019-02-28T11:29:03.167Z,83.30
2019-02-28T11:30:14.408Z,74.80
2019-02-28T11:31:21.647Z,77.13
2019-02-28T11:32:29.332Z,97.93
2019-02-28T11:33:36.462Z,77.93
2019-02-28T11:34:45.822Z,80.23
2019-02-28T11:35:51.213Z,81.03
2019-02-28T11:36:58.900Z,85.57
2019-02-28T11:38:05.880Z,82.13
2019-02-28T11:39:11.780Z,90.43
2019-02-28T11:40:21.841Z,84.13
2019-02-28T11:41:28.487Z,79.70
2019-02-28T11:42:34.963Z,82.63
2019-02-28T11:43:41.720Z,86.03
2019-02-28T11:44:47.842Z,78.73
2019-02-28T11:45:56.463Z,88.50
2019-02-28T11:47:01.611Z,91.70
2019-02-28T11:48:20.107Z,86.53
2019-02-28T11:49:25.603Z,133.57
2019-02-28T11:50:32.520Z,352.77
2019-02-28T11:51:38.207Z,85.37
2019-02-28T11:52:43.860Z,85.00
2019-02-28T11:53:49.895Z,84.90
2019-02-28T11:54:55.761Z,82.80
2019-02-28T11:56:01.741Z,83.37
2019-02-28T11:57:08.547Z,104.23
2019-02-28T11:58:17.792Z,99.30
2019-02-28T11:59:24.086Z,82.23
2019-02-28T12:00:40.442Z,86.97
2019-02-28T12:01:48.309Z,78.37
2019-02-28T12:02:59.896Z,83.73
2019-02-28T12:04:01.580Z,78.53
2019-02-28T12:05:08.281Z,84.47
2019-02-28T12:06:15.881Z,89.47
2019-02-28T12:07:21.802Z,86.20
2019-02-28T12:08:27.549Z,79.27
2019-02-28T12:09:33.521Z,80.17
2019-02-28T12:10:39.763Z,74.80
2019-02-28T12:11:45.828Z,80.43
2019-02-28T12:12:51.783Z,75.47
2019-02-28T12:13:58.244Z,78.30
2019-02-28T12:15:06.112Z,82.63
2019-02-28T12:16:12.961Z,82.83
2019-02-28T12:17:20.641Z,80.77
2019-02-28T12:18:26.389Z,80.60
2019-02-28T12:19:32.861Z,88.10
2019-02-28T12:20:38.788Z,82.23
2019-02-28T12:21:46.601Z,87.93
2019-02-28T12:22:52.821Z,84.10
2019-02-28T12:24:00.563Z,76.57
2019-02-28T12:25:14.268Z,78.53
2019-02-28T12:26:21.097Z,83.33
2019-02-28T12:27:27.424Z,72.67
2019-02-28T12:28:35.210Z,88.50
2019-02-28T12:29:45.570Z,89.10
2019-02-28T12:30:52.073Z,92.40
2019-02-28T12:31:58.490Z,79.37
2019-02-28T12:33:05.602Z,85.30
2019-02-28T12:34:11.780Z,90.17
2019-02-28T12:35:18.141Z,77.17
2019-02-28T12:36:24.156Z,85.13
2019-02-28T12:37:30.961Z,78.83
2019-02-28T12:38:37.688Z,99.43
2019-02-28T12:39:43.520Z,87.87
2019-02-28T12:40:49.908Z,90.90
2019-02-28T12:41:56.493Z,80.03
2019-02-28T12:43:08.514Z,81.13
2019-02-28T12:44:15.384Z,76.50
2019-02-28T12:45:27.681Z,93.70
2019-02-28T12:46:33.962Z,79.70
2019-02-28T12:47:41.541Z,74.87
2019-02-28T12:48:48.395Z,82.47
2019-02-28T12:49:57.237Z,93.57
2019-02-28T12:51:05.276Z,79.03
2019-02-28T12:52:11.304Z,77.97
2019-02-28T12:53:17.202Z,77.83
2019-02-28T12:54:25.971Z,89.03
2019-02-28T12:55:32.250Z,90.97
2019-02-28T12:56:38.204Z,86.40
2019-02-28T12:57:44.601Z,83.77
2019-02-28T12:58:50.504Z,83.70
2019-02-28T12:59:57.348Z,74.47
2019-02-28T13:01:03.833Z,78.50
2019-02-28T13:02:11.711Z,73.73
2019-02-28T13:03:20.947Z,85.70
2019-02-28T13:04:27.101Z,75.00
2019-02-28T13:05:34.250Z,77.40
2019-02-28T13:06:41.814Z,78.93
2019-02-28T13:07:48.603Z,77.27
2019-02-28T13:08:56.686Z,74.70
2019-02-28T13:10:04.093Z,97.63
2019-02-28T13:11:11.413Z,80.17
2019-02-28T13:12:18.029Z,71.00
2019-02-28T13:13:27.525Z,69.07
2019-02-28T13:14:32.008Z,73.80
2019-02-28T13:15:37.704Z,78.50
2019-02-28T13:16:43.781Z,78.17
2019-02-28T13:17:49.781Z,78.13
2019-02-28T13:18:55.641Z,74.30
2019-02-28T13:20:01.433Z,75.30
2019-02-28T13:21:10.473Z,75.33
2019-02-28T13:22:14.630Z,75.37
2019-02-28T13:23:20.506Z,74.80
2019-02-28T13:24:26.510Z,79.17
2019-02-28T13:25:32.966Z,83.43
2019-02-28T13:26:39.201Z,74.47
2019-02-28T13:27:46.199Z,85.47
2019-02-28T13:28:54.564Z,83.27
2019-02-28T13:30:00.336Z,84.77
2019-02-28T13:31:08.789Z,88.77
2019-02-28T13:32:15.308Z,80.67
2019-02-28T13:33:22.083Z,79.07
2019-02-28T13:34:30.564Z,81.13
2019-02-28T13:35:47.175Z,77.47
2019-02-28T13:36:54.256Z,71.10
2019-02-28T13:37:58.425Z,79.20
2019-02-28T13:39:04.950Z,73.13
2019-02-28T13:40:14.442Z,74.10
2019-02-28T13:41:22.134Z,73.63
2019-02-28T13:42:29.288Z,68.40
2019-02-28T13:43:36.665Z,76.40
2019-02-28T13:44:42.829Z,80.70
2019-02-28T13:45:50.894Z,80.50
2019-02-28T13:46:56.201Z,75.43
2019-02-28T13:48:03.501Z,77.10
2019-02-28T13:49:12.083Z,74.13
2019-02-28T13:50:25.673Z,71.70
2019-02-28T13:51:32.789Z,75.03
2019-02-28T13:52:39.711Z,73.47
2019-02-28T13:53:46.913Z,72.90
2019-02-28T13:54:52.606Z,77.70
2019-02-28T13:55:58.361Z,91.97
2019-02-28T13:57:08.088Z,78.97
2019-02-28T13:58:11.761Z,90.07
2019-02-28T13:59:18.349Z,131.57
2019-02-28T14:00:32.612Z,75.13
2019-02-28T14:01:39.209Z,69.03
2019-02-28T14:02:46.542Z,75.80
2019-02-28T14:03:52.251Z,76.00
2019-02-28T14:05:02.482Z,86.77
2019-02-28T14:06:06.317Z,79.23
2019-02-28T14:07:12.543Z,78.07
2019-02-28T14:08:19.597Z,72.13
2019-02-28T14:09:25.582Z,70.50
2019-02-28T14:10:33.546Z,69.43
2019-02-28T14:11:41.860Z,65.90
2019-02-28T14:12:49.030Z,72.53
2019-02-28T14:13:55.017Z,71.93
2019-02-28T14:15:02.435Z,68.97
2019-02-28T14:16:08.331Z,73.60
2019-02-28T14:17:14.183Z,86.37
2019-02-28T14:18:20.168Z,67.83
2019-02-28T14:19:26.032Z,67.13
2019-02-28T14:20:32.017Z,77.00
2019-02-28T14:21:39.509Z,72.27
2019-02-28T14:22:45.839Z,67.03
2019-02-28T14:23:55.448Z,75.97
2019-02-28T14:25:05.118Z,99.37
2019-02-28T14:26:11.401Z,71.57
2019-02-28T14:27:17.089Z,73.47
2019-02-28T14:28:23.150Z,82.80